Skip Navigation LinksHome page > Weather > Current weather Skip Navigation Links

Current Weather

Ronald Reagan Washington National, Washington

For information only: do not use for flight planning or navigation.
Latest weather
Observation time Monday, September 1, 2014 11:52 PM EDT
Local time Tuesday, September 2, 2014 12:14 AM EDT
Flight conditions Visual Meteorological Conditions
Winds
Wind direction South-Southwest (200°)
Wind speed 8 mph
Visibility 10 mi.
Sky condition
Ceiling 25,000 ft. broken clouds
Cloud layer few clouds 6,000 ft.
Cloud layer scattered clouds 10,000 ft.
Cloud layer broken clouds 25,000 ft.
Temperature 81°F
Dewpoint 74°F
Altimeter 29.97 in.Hg
Derived measurements
Relative humidity 79%
Heat index 86°F
Density altitude 1749 ft.
Sea-level pressure 29.96 in.Hg
Remarks
Automated weather observing station with precipitation discriminator.
METAR KDCA 020352Z 20007KT 10SM FEW060 SCT100 BKN250 27/23 A2997 RMK AO2 SLP147 T02720233

Settings

Location code

InnerDrive.Weather 4.0.5356.0 Release CLR 4.0.30319.34014
Copyright ©2014 Inner Drive Technology. All rights reserved. Portions Copyright ©1986-2014 David Braverman.

Find weather

Site navigation


Skip Navigation Links

Place info

Page info

PayPal - The safer, easier way to pay online!

Return home.

Copyright ©2014 Inner Drive Technology. Purveyors of fine, hand-crafted computer software. Page printed 2014-09-02T04:14:04 UTC.